sensor_id;sensor_type;location;lat;lon;timestamp;P1;durP1;ratioP1;P2;durP2;ratioP2
38609;SDS011;24367;51.640;9.566;2024-01-06T00:02:16;4.18;;;1.35;;
38609;SDS011;24367;51.640;9.566;2024-01-06T00:04:44;6.55;;;1.00;;
38609;SDS011;24367;51.640;9.566;2024-01-06T00:07:10;3.00;;;1.00;;
38609;SDS011;24367;51.640;9.566;2024-01-06T00:09:38;2.70;;;0.90;;
38609;SDS011;24367;51.640;9.566;2024-01-06T00:12:05;3.58;;;0.93;;
38609;SDS011;24367;51.640;9.566;2024-01-06T00:14:32;2.90;;;0.82;;
38609;SDS011;24367;51.640;9.566;2024-01-06T00:16:58;5.45;;;1.20;;
38609;SDS011;24367;51.640;9.566;2024-01-06T00:19:25;4.55;;;1.10;;
38609;SDS011;24367;51.640;9.566;2024-01-06T00:21:53;2.35;;;0.80;;
38609;SDS011;24367;51.640;9.566;2024-01-06T00:24:19;3.00;;;1.17;;
38609;SDS011;24367;51.640;9.566;2024-01-06T00:26:45;2.65;;;0.98;;
38609;SDS011;24367;51.640;9.566;2024-01-06T00:29:12;2.70;;;0.88;;
38609;SDS011;24367;51.640;9.566;2024-01-06T00:31:38;2.05;;;1.15;;
38609;SDS011;24367;51.640;9.566;2024-01-06T00:34:05;3.67;;;1.05;;
38609;SDS011;24367;51.640;9.566;2024-01-06T00:36:31;2.72;;;1.23;;
38609;SDS011;24367;51.640;9.566;2024-01-06T00:38:59;3.92;;;1.20;;
38609;SDS011;24367;51.640;9.566;2024-01-06T00:41:25;3.25;;;1.20;;
38609;SDS011;24367;51.640;9.566;2024-01-06T00:43:52;2.33;;;0.95;;
38609;SDS011;24367;51.640;9.566;2024-01-06T00:46:18;3.95;;;0.93;;
38609;SDS011;24367;51.640;9.566;2024-01-06T00:48:45;4.70;;;0.98;;
38609;SDS011;24367;51.640;9.566;2024-01-06T00:51:11;1.33;;;0.63;;
38609;SDS011;24367;51.640;9.566;2024-01-06T00:53:37;2.30;;;0.80;;
38609;SDS011;24367;51.640;9.566;2024-01-06T00:56:05;2.40;;;1.05;;
38609;SDS011;24367;51.640;9.566;2024-01-06T00:58:31;2.67;;;0.80;;
38609;SDS011;24367;51.640;9.566;2024-01-06T01:00:58;4.40;;;1.00;;
38609;SDS011;24367;51.640;9.566;2024-01-06T01:03:24;2.20;;;0.90;;
38609;SDS011;24367;51.640;9.566;2024-01-06T01:05:51;2.70;;;0.80;;
38609;SDS011;24367;51.640;9.566;2024-01-06T01:08:17;1.80;;;0.70;;
38609;SDS011;24367;51.640;9.566;2024-01-06T01:10:44;3.20;;;0.80;;
38609;SDS011;24367;51.640;9.566;2024-01-06T01:13:12;3.33;;;1.25;;
38609;SDS011;24367;51.640;9.566;2024-01-06T01:15:38;2.58;;;0.82;;
38609;SDS011;24367;51.640;9.566;2024-01-06T01:18:05;1.63;;;0.80;;
38609;SDS011;24367;51.640;9.566;2024-01-06T01:20:31;3.25;;;1.02;;
38609;SDS011;24367;51.640;9.566;2024-01-06T01:22:58;1.80;;;0.80;;
38609;SDS011;24367;51.640;9.566;2024-01-06T01:25:24;2.03;;;0.82;;
38609;SDS011;24367;51.640;9.566;2024-01-06T01:27:50;2.67;;;0.82;;
38609;SDS011;24367;51.640;9.566;2024-01-06T01:30:18;3.33;;;0.70;;
38609;SDS011;24367;51.640;9.566;2024-01-06T01:32:44;1.38;;;0.77;;
38609;SDS011;24367;51.640;9.566;2024-01-06T01:35:11;2.92;;;1.10;;
38609;SDS011;24367;51.640;9.566;2024-01-06T01:37:37;2.45;;;1.00;;
38609;SDS011;24367;51.640;9.566;2024-01-06T01:40:04;2.47;;;0.77;;
38609;SDS011;24367;51.640;9.566;2024-01-06T01:42:32;2.00;;;1.08;;
38609;SDS011;24367;51.640;9.566;2024-01-06T01:44:58;1.77;;;0.73;;
38609;SDS011;24367;51.640;9.566;2024-01-06T01:47:26;1.08;;;0.60;;
38609;SDS011;24367;51.640;9.566;2024-01-06T01:49:53;1.98;;;0.80;;
38609;SDS011;24367;51.640;9.566;2024-01-06T01:52:21;1.40;;;0.73;;
38609;SDS011;24367;51.640;9.566;2024-01-06T01:54:47;3.35;;;0.85;;
38609;SDS011;24367;51.640;9.566;2024-01-06T01:57:14;1.92;;;0.90;;
38609;SDS011;24367;51.640;9.566;2024-01-06T01:59:41;1.58;;;0.70;;
38609;SDS011;24367;51.640;9.566;2024-01-06T02:02:08;1.45;;;0.60;;
38609;SDS011;24367;51.640;9.566;2024-01-06T02:04:35;1.45;;;0.70;;
38609;SDS011;24367;51.640;9.566;2024-01-06T02:07:02;1.83;;;1.10;;
38609;SDS011;24367;51.640;9.566;2024-01-06T02:09:28;1.80;;;0.80;;
38609;SDS011;24367;51.640;9.566;2024-01-06T02:11:56;1.60;;;0.80;;
38609;SDS011;24367;51.640;9.566;2024-01-06T02:14:22;1.50;;;0.80;;
38609;SDS011;24367;51.640;9.566;2024-01-06T02:16:49;2.55;;;0.77;;
38609;SDS011;24367;51.640;9.566;2024-01-06T02:19:15;2.03;;;1.15;;
38609;SDS011;24367;51.640;9.566;2024-01-06T02:21:43;1.90;;;0.82;;
38609;SDS011;24367;51.640;9.566;2024-01-06T02:24:11;1.73;;;0.60;;
38609;SDS011;24367;51.640;9.566;2024-01-06T02:26:38;1.08;;;0.68;;
38609;SDS011;24367;51.640;9.566;2024-01-06T02:29:05;2.03;;;0.75;;
38609;SDS011;24367;51.640;9.566;2024-01-06T02:31:31;1.92;;;0.63;;
38609;SDS011;24367;51.640;9.566;2024-01-06T02:33:57;1.25;;;0.50;;
38609;SDS011;24367;51.640;9.566;2024-01-06T02:36:24;2.70;;;0.75;;
38609;SDS011;24367;51.640;9.566;2024-01-06T02:38:50;1.73;;;0.70;;
38609;SDS011;24367;51.640;9.566;2024-01-06T02:41:18;2.33;;;0.80;;
38609;SDS011;24367;51.640;9.566;2024-01-06T02:43:44;1.42;;;0.77;;
38609;SDS011;24367;51.640;9.566;2024-01-06T02:46:11;1.08;;;0.57;;
38609;SDS011;24367;51.640;9.566;2024-01-06T02:48:37;1.15;;;0.50;;
38609;SDS011;24367;51.640;9.566;2024-01-06T02:51:04;1.73;;;0.63;;
38609;SDS011;24367;51.640;9.566;2024-01-06T02:53:30;1.55;;;0.50;;
38609;SDS011;24367;51.640;9.566;2024-01-06T02:55:57;2.50;;;0.80;;
38609;SDS011;24367;51.640;9.566;2024-01-06T02:58:24;2.13;;;0.68;;
38609;SDS011;24367;51.640;9.566;2024-01-06T03:00:51;0.82;;;0.40;;
38609;SDS011;24367;51.640;9.566;2024-01-06T03:03:17;2.03;;;0.73;;
38609;SDS011;24367;51.640;9.566;2024-01-06T03:05:43;1.98;;;0.82;;
38609;SDS011;24367;51.640;9.566;2024-01-06T03:08:12;1.77;;;0.50;;
38609;SDS011;24367;51.640;9.566;2024-01-06T03:10:38;1.50;;;0.70;;
38609;SDS011;24367;51.640;9.566;2024-01-06T03:13:04;1.60;;;0.70;;
38609;SDS011;24367;51.640;9.566;2024-01-06T03:15:32;1.10;;;0.50;;
38609;SDS011;24367;51.640;9.566;2024-01-06T03:17:59;1.17;;;0.50;;
38609;SDS011;24367;51.640;9.566;2024-01-06T03:20:25;1.42;;;0.65;;
38609;SDS011;24367;51.640;9.566;2024-01-06T03:22:51;1.98;;;0.77;;
38609;SDS011;24367;51.640;9.566;2024-01-06T03:25:18;1.60;;;0.70;;
38609;SDS011;24367;51.640;9.566;2024-01-06T03:27:44;1.55;;;0.70;;
38609;SDS011;24367;51.640;9.566;2024-01-06T03:30:11;1.50;;;0.77;;
38609;SDS011;24367;51.640;9.566;2024-01-06T03:32:40;1.63;;;0.70;;
38609;SDS011;24367;51.640;9.566;2024-01-06T03:35:06;1.17;;;0.65;;
38609;SDS011;24367;51.640;9.566;2024-01-06T03:37:33;1.15;;;0.50;;
38609;SDS011;24367;51.640;9.566;2024-01-06T03:39:59;0.93;;;0.50;;
38609;SDS011;24367;51.640;9.566;2024-01-06T03:42:26;1.67;;;0.60;;
38609;SDS011;24367;51.640;9.566;2024-01-06T03:44:52;1.92;;;0.88;;
38609;SDS011;24367;51.640;9.566;2024-01-06T03:47:19;1.58;;;0.57;;
38609;SDS011;24367;51.640;9.566;2024-01-06T03:49:47;1.83;;;0.60;;
38609;SDS011;24367;51.640;9.566;2024-01-06T03:52:13;2.08;;;0.70;;
38609;SDS011;24367;51.640;9.566;2024-01-06T03:54:40;1.38;;;0.70;;
38609;SDS011;24367;51.640;9.566;2024-01-06T03:57:06;1.48;;;0.40;;
38609;SDS011;24367;51.640;9.566;2024-01-06T03:59:32;1.42;;;0.60;;
38609;SDS011;24367;51.640;9.566;2024-01-06T04:01:59;1.38;;;0.70;;
38609;SDS011;24367;51.640;9.566;2024-01-06T04:04:25;2.17;;;0.80;;
38609;SDS011;24367;51.640;9.566;2024-01-06T04:06:53;1.42;;;0.60;;
38609;SDS011;24367;51.640;9.566;2024-01-06T04:09:19;1.45;;;0.60;;
38609;SDS011;24367;51.640;9.566;2024-01-06T04:11:46;1.10;;;0.60;;
38609;SDS011;24367;51.640;9.566;2024-01-06T04:14:12;1.83;;;0.60;;
38609;SDS011;24367;51.640;9.566;2024-01-06T04:16:39;1.80;;;0.80;;
38609;SDS011;24367;51.640;9.566;2024-01-06T04:19:05;1.13;;;0.55;;
38609;SDS011;24367;51.640;9.566;2024-01-06T04:21:32;1.30;;;0.70;;
38609;SDS011;24367;51.640;9.566;2024-01-06T04:24:00;0.80;;;0.50;;
38609;SDS011;24367;51.640;9.566;2024-01-06T04:26:26;1.33;;;0.47;;
38609;SDS011;24367;51.640;9.566;2024-01-06T04:28:53;0.95;;;0.47;;
38609;SDS011;24367;51.640;9.566;2024-01-06T04:31:19;0.80;;;0.50;;
38609;SDS011;24367;51.640;9.566;2024-01-06T04:33:45;0.80;;;0.50;;
38609;SDS011;24367;51.640;9.566;2024-01-06T04:36:12;1.38;;;0.50;;
38609;SDS011;24367;51.640;9.566;2024-01-06T04:38:38;1.67;;;0.65;;
38609;SDS011;24367;51.640;9.566;2024-01-06T04:41:06;2.13;;;0.63;;
38609;SDS011;24367;51.640;9.566;2024-01-06T04:43:32;0.90;;;0.50;;
38609;SDS011;24367;51.640;9.566;2024-01-06T04:45:59;1.17;;;0.68;;
38609;SDS011;24367;51.640;9.566;2024-01-06T04:48:25;1.60;;;0.70;;
38609;SDS011;24367;51.640;9.566;2024-01-06T04:50:51;0.73;;;0.40;;
38609;SDS011;24367;51.640;9.566;2024-01-06T04:53:19;1.50;;;0.50;;
38609;SDS011;24367;51.640;9.566;2024-01-06T04:55:45;1.40;;;0.50;;
38609;SDS011;24367;51.640;9.566;2024-01-06T04:58:13;1.17;;;0.50;;
38609;SDS011;24367;51.640;9.566;2024-01-06T05:00:40;1.30;;;0.60;;
38609;SDS011;24367;51.640;9.566;2024-01-06T05:03:06;1.98;;;0.60;;
38609;SDS011;24367;51.640;9.566;2024-01-06T05:05:33;2.53;;;0.65;;
38609;SDS011;24367;51.640;9.566;2024-01-06T05:07:59;1.42;;;0.60;;
38609;SDS011;24367;51.640;9.566;2024-01-06T05:10:26;0.95;;;0.50;;
38609;SDS011;24367;51.640;9.566;2024-01-06T05:12:52;0.90;;;0.50;;
38609;SDS011;24367;51.640;9.566;2024-01-06T05:15:20;1.23;;;0.60;;
38609;SDS011;24367;51.640;9.566;2024-01-06T05:17:47;1.58;;;0.60;;
38609;SDS011;24367;51.640;9.566;2024-01-06T05:20:13;1.05;;;0.50;;
38609;SDS011;24367;51.640;9.566;2024-01-06T05:22:40;1.48;;;0.68;;
38609;SDS011;24367;51.640;9.566;2024-01-06T05:25:07;0.82;;;0.50;;
38609;SDS011;24367;51.640;9.566;2024-01-06T05:27:34;1.20;;;0.68;;
38609;SDS011;24367;51.640;9.566;2024-01-06T05:30:00;0.98;;;0.50;;
38609;SDS011;24367;51.640;9.566;2024-01-06T05:32:28;1.58;;;0.70;;
38609;SDS011;24367;51.640;9.566;2024-01-06T05:34:54;1.83;;;0.80;;
38609;SDS011;24367;51.640;9.566;2024-01-06T05:37:21;1.10;;;0.60;;
38609;SDS011;24367;51.640;9.566;2024-01-06T05:39:47;1.27;;;0.50;;
38609;SDS011;24367;51.640;9.566;2024-01-06T05:42:14;1.90;;;0.65;;
38609;SDS011;24367;51.640;9.566;2024-01-06T05:44:40;1.38;;;0.70;;
38609;SDS011;24367;51.640;9.566;2024-01-06T05:47:07;1.40;;;1.08;;
38609;SDS011;24367;51.640;9.566;2024-01-06T05:49:35;1.23;;;0.57;;
38609;SDS011;24367;51.640;9.566;2024-01-06T05:52:02;1.70;;;0.63;;
38609;SDS011;24367;51.640;9.566;2024-01-06T05:54:28;0.63;;;0.35;;
38609;SDS011;24367;51.640;9.566;2024-01-06T05:56:55;1.08;;;0.50;;
38609;SDS011;24367;51.640;9.566;2024-01-06T05:59:22;0.90;;;0.40;;
38609;SDS011;24367;51.640;9.566;2024-01-06T06:01:48;1.02;;;0.50;;
38609;SDS011;24367;51.640;9.566;2024-01-06T06:04:14;1.00;;;0.40;;
38609;SDS011;24367;51.640;9.566;2024-01-06T06:06:42;1.33;;;0.70;;
38609;SDS011;24367;51.640;9.566;2024-01-06T06:09:08;1.35;;;0.60;;
38609;SDS011;24367;51.640;9.566;2024-01-06T06:11:35;1.10;;;0.50;;
38609;SDS011;24367;51.640;9.566;2024-01-06T06:14:01;1.27;;;0.70;;
38609;SDS011;24367;51.640;9.566;2024-01-06T06:16:28;0.90;;;0.50;;
38609;SDS011;24367;51.640;9.566;2024-01-06T06:18:54;1.20;;;0.60;;
38609;SDS011;24367;51.640;9.566;2024-01-06T06:21:21;0.82;;;0.47;;
38609;SDS011;24367;51.640;9.566;2024-01-06T06:23:48;0.68;;;0.40;;
38609;SDS011;24367;51.640;9.566;2024-01-06T06:26:15;1.17;;;0.60;;
38609;SDS011;24367;51.640;9.566;2024-01-06T06:28:41;1.10;;;0.50;;
38609;SDS011;24367;51.640;9.566;2024-01-06T06:31:08;1.20;;;0.68;;
38609;SDS011;24367;51.640;9.566;2024-01-06T06:33:35;0.93;;;0.60;;
38609;SDS011;24367;51.640;9.566;2024-01-06T06:36:01;0.90;;;0.40;;
38609;SDS011;24367;51.640;9.566;2024-01-06T06:38:28;1.08;;;0.60;;
38609;SDS011;24367;51.640;9.566;2024-01-06T06:40:56;1.08;;;0.60;;
38609;SDS011;24367;51.640;9.566;2024-01-06T06:43:23;2.03;;;0.65;;
38609;SDS011;24367;51.640;9.566;2024-01-06T06:45:49;3.63;;;0.77;;
38609;SDS011;24367;51.640;9.566;2024-01-06T06:48:15;4.60;;;0.70;;
38609;SDS011;24367;51.640;9.566;2024-01-06T06:50:42;3.47;;;1.02;;
38609;SDS011;24367;51.640;9.566;2024-01-06T06:53:08;5.93;;;1.13;;
38609;SDS011;24367;51.640;9.566;2024-01-06T06:55:35;4.25;;;0.70;;
38609;SDS011;24367;51.640;9.566;2024-01-06T06:58:03;3.63;;;0.90;;
38609;SDS011;24367;51.640;9.566;2024-01-06T07:00:30;3.80;;;0.90;;
38609;SDS011;24367;51.640;9.566;2024-01-06T07:02:56;7.93;;;0.95;;
38609;SDS011;24367;51.640;9.566;2024-01-06T07:05:23;2.50;;;0.70;;
38609;SDS011;24367;51.640;9.566;2024-01-06T07:07:50;2.97;;;0.80;;
38609;SDS011;24367;51.640;9.566;2024-01-06T07:10:16;6.70;;;1.17;;
38609;SDS011;24367;51.640;9.566;2024-01-06T07:12:42;6.18;;;1.05;;
38609;SDS011;24367;51.640;9.566;2024-01-06T07:15:10;6.90;;;0.80;;
38609;SDS011;24367;51.640;9.566;2024-01-06T07:17:37;2.97;;;0.85;;
38609;SDS011;24367;51.640;9.566;2024-01-06T07:20:04;3.53;;;1.13;;
38609;SDS011;24367;51.640;9.566;2024-01-06T07:22:32;3.85;;;0.90;;
38609;SDS011;24367;51.640;9.566;2024-01-06T07:24:59;3.60;;;0.80;;
38609;SDS011;24367;51.640;9.566;2024-01-06T07:27:26;3.28;;;0.95;;
38609;SDS011;24367;51.640;9.566;2024-01-06T07:29:52;3.95;;;0.88;;
38609;SDS011;24367;51.640;9.566;2024-01-06T07:32:21;2.95;;;1.20;;
38609;SDS011;24367;51.640;9.566;2024-01-06T07:34:48;2.50;;;0.60;;
38609;SDS011;24367;51.640;9.566;2024-01-06T07:37:14;2.38;;;0.80;;
38609;SDS011;24367;51.640;9.566;2024-01-06T07:39:41;3.03;;;1.10;;
38609;SDS011;24367;51.640;9.566;2024-01-06T07:42:07;2.50;;;0.95;;
38609;SDS011;24367;51.640;9.566;2024-01-06T07:44:33;2.50;;;1.05;;
38609;SDS011;24367;51.640;9.566;2024-01-06T07:47:00;5.75;;;1.17;;
38609;SDS011;24367;51.640;9.566;2024-01-06T07:49:31;3.22;;;1.00;;
38609;SDS011;24367;51.640;9.566;2024-01-06T07:51:58;2.70;;;1.40;;
38609;SDS011;24367;51.640;9.566;2024-01-06T07:54:25;4.25;;;1.00;;
38609;SDS011;24367;51.640;9.566;2024-01-06T07:56:51;6.22;;;1.17;;
38609;SDS011;24367;51.640;9.566;2024-01-06T07:59:18;7.03;;;1.58;;
38609;SDS011;24367;51.640;9.566;2024-01-06T08:01:44;4.45;;;0.98;;
38609;SDS011;24367;51.640;9.566;2024-01-06T08:04:11;6.30;;;1.33;;
38609;SDS011;24367;51.640;9.566;2024-01-06T08:06:39;2.63;;;1.00;;
38609;SDS011;24367;51.640;9.566;2024-01-06T08:09:05;3.88;;;0.93;;
38609;SDS011;24367;51.640;9.566;2024-01-06T08:11:33;2.88;;;0.77;;
38609;SDS011;24367;51.640;9.566;2024-01-06T08:14:00;4.32;;;1.08;;
38609;SDS011;24367;51.640;9.566;2024-01-06T08:16:27;9.32;;;1.52;;
38609;SDS011;24367;51.640;9.566;2024-01-06T08:18:53;4.50;;;1.38;;
38609;SDS011;24367;51.640;9.566;2024-01-06T08:21:20;2.92;;;0.77;;
38609;SDS011;24367;51.640;9.566;2024-01-06T08:23:48;2.45;;;1.00;;
38609;SDS011;24367;51.640;9.566;2024-01-06T08:26:14;5.63;;;0.98;;
38609;SDS011;24367;51.640;9.566;2024-01-06T08:28:40;6.53;;;1.33;;
38609;SDS011;24367;51.640;9.566;2024-01-06T08:31:07;3.38;;;1.00;;
38609;SDS011;24367;51.640;9.566;2024-01-06T08:33:33;2.72;;;1.13;;
38609;SDS011;24367;51.640;9.566;2024-01-06T08:35:59;2.92;;;1.08;;
38609;SDS011;24367;51.640;9.566;2024-01-06T08:38:26;6.07;;;1.85;;
38609;SDS011;24367;51.640;9.566;2024-01-06T08:40:53;4.60;;;1.05;;
38609;SDS011;24367;51.640;9.566;2024-01-06T08:43:20;2.92;;;1.08;;
38609;SDS011;24367;51.640;9.566;2024-01-06T08:45:46;4.43;;;1.30;;
38609;SDS011;24367;51.640;9.566;2024-01-06T08:48:13;3.13;;;1.17;;
38609;SDS011;24367;51.640;9.566;2024-01-06T08:50:40;5.20;;;1.77;;
38609;SDS011;24367;51.640;9.566;2024-01-06T08:53:06;2.65;;;0.90;;
38609;SDS011;24367;51.640;9.566;2024-01-06T08:55:33;4.07;;;1.30;;
38609;SDS011;24367;51.640;9.566;2024-01-06T08:58:00;2.78;;;1.00;;
38609;SDS011;24367;51.640;9.566;2024-01-06T09:00:27;5.18;;;1.48;;
38609;SDS011;24367;51.640;9.566;2024-01-06T09:02:53;5.47;;;1.40;;
38609;SDS011;24367;51.640;9.566;2024-01-06T09:05:19;2.75;;;1.17;;
38609;SDS011;24367;51.640;9.566;2024-01-06T09:07:46;4.55;;;1.40;;
38609;SDS011;24367;51.640;9.566;2024-01-06T09:10:15;4.25;;;1.35;;
38609;SDS011;24367;51.640;9.566;2024-01-06T09:12:42;3.33;;;1.27;;
38609;SDS011;24367;51.640;9.566;2024-01-06T09:15:09;4.88;;;1.23;;
38609;SDS011;24367;51.640;9.566;2024-01-06T09:17:36;3.90;;;1.20;;
38609;SDS011;24367;51.640;9.566;2024-01-06T09:20:02;5.10;;;1.45;;
38609;SDS011;24367;51.640;9.566;2024-01-06T09:22:29;2.42;;;1.08;;
38609;SDS011;24367;51.640;9.566;2024-01-06T09:24:56;6.05;;;1.70;;
38609;SDS011;24367;51.640;9.566;2024-01-06T09:27:22;3.45;;;1.50;;
38609;SDS011;24367;51.640;9.566;2024-01-06T09:29:48;4.13;;;1.70;;
38609;SDS011;24367;51.640;9.566;2024-01-06T09:32:17;4.20;;;1.92;;
38609;SDS011;24367;51.640;9.566;2024-01-06T09:34:43;4.85;;;1.52;;
38609;SDS011;24367;51.640;9.566;2024-01-06T09:37:10;3.67;;;1.70;;
38609;SDS011;24367;51.640;9.566;2024-01-06T09:39:36;3.72;;;1.45;;
38609;SDS011;24367;51.640;9.566;2024-01-06T09:42:04;4.82;;;1.42;;
38609;SDS011;24367;51.640;9.566;2024-01-06T09:44:32;11.38;;;2.03;;
38609;SDS011;24367;51.640;9.566;2024-01-06T09:46:58;4.05;;;1.30;;
38609;SDS011;24367;51.640;9.566;2024-01-06T09:49:26;3.85;;;1.50;;
38609;SDS011;24367;51.640;9.566;2024-01-06T09:51:55;4.68;;;1.58;;
38609;SDS011;24367;51.640;9.566;2024-01-06T09:54:23;4.15;;;1.73;;
38609;SDS011;24367;51.640;9.566;2024-01-06T09:56:51;7.97;;;1.77;;
38609;SDS011;24367;51.640;9.566;2024-01-06T09:59:18;4.63;;;1.70;;
38609;SDS011;24367;51.640;9.566;2024-01-06T10:01:45;8.32;;;1.92;;
38609;SDS011;24367;51.640;9.566;2024-01-06T10:04:11;5.93;;;1.80;;
38609;SDS011;24367;51.640;9.566;2024-01-06T10:06:41;7.20;;;1.80;;
38609;SDS011;24367;51.640;9.566;2024-01-06T10:09:07;5.10;;;2.05;;
38609;SDS011;24367;51.640;9.566;2024-01-06T10:11:35;3.85;;;1.80;;
38609;SDS011;24367;51.640;9.566;2024-01-06T10:14:02;4.65;;;1.90;;
38609;SDS011;24367;51.640;9.566;2024-01-06T10:16:29;7.38;;;3.20;;
38609;SDS011;24367;51.640;9.566;2024-01-06T10:18:56;4.80;;;2.55;;
38609;SDS011;24367;51.640;9.566;2024-01-06T10:21:22;6.75;;;2.80;;
38609;SDS011;24367;51.640;9.566;2024-01-06T10:23:50;6.45;;;2.33;;
38609;SDS011;24367;51.640;9.566;2024-01-06T10:26:16;5.22;;;2.70;;
38609;SDS011;24367;51.640;9.566;2024-01-06T10:28:43;5.80;;;2.33;;
38609;SDS011;24367;51.640;9.566;2024-01-06T10:31:10;5.60;;;2.00;;
38609;SDS011;24367;51.640;9.566;2024-01-06T10:33:36;5.10;;;2.25;;
38609;SDS011;24367;51.640;9.566;2024-01-06T10:36:05;5.72;;;2.20;;
38609;SDS011;24367;51.640;9.566;2024-01-06T10:38:33;5.70;;;1.95;;
38609;SDS011;24367;51.640;9.566;2024-01-06T10:41:02;6.32;;;2.00;;
38609;SDS011;24367;51.640;9.566;2024-01-06T10:43:32;5.82;;;1.95;;
38609;SDS011;24367;51.640;9.566;2024-01-06T10:46:01;8.15;;;2.30;;
38609;SDS011;24367;51.640;9.566;2024-01-06T10:48:29;5.15;;;2.00;;
38609;SDS011;24367;51.640;9.566;2024-01-06T10:50:56;4.53;;;1.55;;
38609;SDS011;24367;51.640;9.566;2024-01-06T10:53:24;6.00;;;2.03;;
38609;SDS011;24367;51.640;9.566;2024-01-06T10:55:52;6.97;;;2.40;;
38609;SDS011;24367;51.640;9.566;2024-01-06T10:58:20;6.72;;;2.65;;
38609;SDS011;24367;51.640;9.566;2024-01-06T11:00:47;4.95;;;1.88;;
38609;SDS011;24367;51.640;9.566;2024-01-06T11:03:14;5.80;;;2.55;;
38609;SDS011;24367;51.640;9.566;2024-01-06T11:05:40;6.22;;;2.22;;
38609;SDS011;24367;51.640;9.566;2024-01-06T11:08:07;7.28;;;2.40;;
38609;SDS011;24367;51.640;9.566;2024-01-06T11:10:35;8.85;;;2.38;;
38609;SDS011;24367;51.640;9.566;2024-01-06T11:13:06;6.60;;;2.03;;
38609;SDS011;24367;51.640;9.566;2024-01-06T11:15:43;5.65;;;2.30;;
38609;SDS011;24367;51.640;9.566;2024-01-06T11:21:14;5.70;;;2.30;;
38609;SDS011;24367;51.640;9.566;2024-01-06T11:23:49;5.45;;;1.92;;
38609;SDS011;24367;51.640;9.566;2024-01-06T11:26:34;3.80;;;2.00;;
38609;SDS011;24367;51.640;9.566;2024-01-06T11:29:05;5.10;;;2.03;;
38609;SDS011;24367;51.640;9.566;2024-01-06T11:31:33;4.93;;;2.10;;
38609;SDS011;24367;51.640;9.566;2024-01-06T11:34:11;7.47;;;2.15;;
38609;SDS011;24367;51.640;9.566;2024-01-06T11:36:38;7.32;;;2.42;;
38609;SDS011;24367;51.640;9.566;2024-01-06T11:39:05;3.78;;;1.90;;
38609;SDS011;24367;51.640;9.566;2024-01-06T11:41:50;3.58;;;2.35;;
38609;SDS011;24367;51.640;9.566;2024-01-06T11:44:18;4.72;;;2.33;;
38609;SDS011;24367;51.640;9.566;2024-01-06T11:46:47;4.15;;;1.90;;
38609;SDS011;24367;51.640;9.566;2024-01-06T11:49:15;4.68;;;1.90;;
38609;SDS011;24367;51.640;9.566;2024-01-06T11:51:41;3.97;;;1.85;;
38609;SDS011;24367;51.640;9.566;2024-01-06T11:54:08;7.78;;;2.20;;
38609;SDS011;24367;51.640;9.566;2024-01-06T11:56:35;4.97;;;2.13;;
38609;SDS011;24367;51.640;9.566;2024-01-06T11:59:01;3.92;;;2.10;;
38609;SDS011;24367;51.640;9.566;2024-01-06T12:01:28;7.63;;;2.45;;
38609;SDS011;24367;51.640;9.566;2024-01-06T12:06:30;11.30;;;2.70;;
38609;SDS011;24367;51.640;9.566;2024-01-06T12:09:02;5.82;;;3.00;;
38609;SDS011;24367;51.640;9.566;2024-01-06T12:11:30;9.67;;;2.60;;
38609;SDS011;24367;51.640;9.566;2024-01-06T12:13:56;16.85;;;3.70;;
38609;SDS011;24367;51.640;9.566;2024-01-06T12:16:22;6.07;;;2.47;;
38609;SDS011;24367;51.640;9.566;2024-01-06T12:18:52;10.55;;;3.67;;
38609;SDS011;24367;51.640;9.566;2024-01-06T12:21:21;14.70;;;3.83;;
38609;SDS011;24367;51.640;9.566;2024-01-06T12:23:48;8.48;;;3.03;;
38609;SDS011;24367;51.640;9.566;2024-01-06T12:26:14;6.97;;;3.05;;
38609;SDS011;24367;51.640;9.566;2024-01-06T12:28:44;12.32;;;3.20;;
38609;SDS011;24367;51.640;9.566;2024-01-06T12:31:10;8.77;;;2.50;;
38609;SDS011;24367;51.640;9.566;2024-01-06T12:33:37;11.82;;;2.50;;
38609;SDS011;24367;51.640;9.566;2024-01-06T12:36:06;5.97;;;2.30;;
38609;SDS011;24367;51.640;9.566;2024-01-06T12:38:34;9.55;;;2.65;;
38609;SDS011;24367;51.640;9.566;2024-01-06T12:41:02;7.22;;;2.70;;
38609;SDS011;24367;51.640;9.566;2024-01-06T12:43:29;5.60;;;2.40;;
38609;SDS011;24367;51.640;9.566;2024-01-06T12:45:56;8.52;;;2.28;;
38609;SDS011;24367;51.640;9.566;2024-01-06T12:48:23;6.70;;;2.38;;
38609;SDS011;24367;51.640;9.566;2024-01-06T12:50:49;6.63;;;2.47;;
38609;SDS011;24367;51.640;9.566;2024-01-06T12:53:16;8.02;;;2.28;;
38609;SDS011;24367;51.640;9.566;2024-01-06T12:55:43;8.13;;;2.50;;
38609;SDS011;24367;51.640;9.566;2024-01-06T12:58:10;6.45;;;2.05;;
38609;SDS011;24367;51.640;9.566;2024-01-06T13:00:36;11.80;;;2.70;;
38609;SDS011;24367;51.640;9.566;2024-01-06T13:03:03;5.60;;;2.40;;
38609;SDS011;24367;51.640;9.566;2024-01-06T13:05:30;6.75;;;2.20;;
38609;SDS011;24367;51.640;9.566;2024-01-06T13:07:57;3.53;;;1.90;;
38609;SDS011;24367;51.640;9.566;2024-01-06T13:10:23;4.65;;;2.20;;
38609;SDS011;24367;51.640;9.566;2024-01-06T13:12:51;4.93;;;2.20;;
38609;SDS011;24367;51.640;9.566;2024-01-06T13:15:17;4.72;;;1.90;;
38609;SDS011;24367;51.640;9.566;2024-01-06T13:17:44;4.00;;;2.20;;
38609;SDS011;24367;51.640;9.566;2024-01-06T13:20:11;4.97;;;2.17;;
38609;SDS011;24367;51.640;9.566;2024-01-06T13:22:38;11.52;;;2.63;;
38609;SDS011;24367;51.640;9.566;2024-01-06T13:25:05;9.15;;;2.63;;
38609;SDS011;24367;51.640;9.566;2024-01-06T13:27:33;7.70;;;2.65;;
38609;SDS011;24367;51.640;9.566;2024-01-06T13:30:01;7.05;;;2.78;;
38609;SDS011;24367;51.640;9.566;2024-01-06T13:32:28;9.35;;;2.72;;
38609;SDS011;24367;51.640;9.566;2024-01-06T13:34:55;9.07;;;3.80;;
38609;SDS011;24367;51.640;9.566;2024-01-06T13:39:55;7.78;;;5.22;;
38609;SDS011;24367;51.640;9.566;2024-01-06T13:42:21;6.35;;;4.50;;
38609;SDS011;24367;51.640;9.566;2024-01-06T13:44:48;9.18;;;4.55;;
38609;SDS011;24367;51.640;9.566;2024-01-06T13:47:15;6.85;;;3.88;;
38609;SDS011;24367;51.640;9.566;2024-01-06T13:49:42;8.82;;;3.60;;
38609;SDS011;24367;51.640;9.566;2024-01-06T13:52:08;14.93;;;3.67;;
38609;SDS011;24367;51.640;9.566;2024-01-06T13:54:35;11.50;;;3.80;;
38609;SDS011;24367;51.640;9.566;2024-01-06T13:57:01;13.98;;;3.95;;
38609;SDS011;24367;51.640;9.566;2024-01-06T13:59:27;4.47;;;2.67;;
38609;SDS011;24367;51.640;9.566;2024-01-06T14:01:54;6.65;;;3.00;;
38609;SDS011;24367;51.640;9.566;2024-01-06T14:04:22;19.45;;;4.43;;
38609;SDS011;24367;51.640;9.566;2024-01-06T14:06:48;14.75;;;3.08;;
38609;SDS011;24367;51.640;9.566;2024-01-06T14:09:21;12.63;;;2.97;;
38609;SDS011;24367;51.640;9.566;2024-01-06T14:11:47;9.15;;;2.50;;
38609;SDS011;24367;51.640;9.566;2024-01-06T14:14:13;6.60;;;2.25;;
38609;SDS011;24367;51.640;9.566;2024-01-06T14:16:40;10.75;;;3.10;;
38609;SDS011;24367;51.640;9.566;2024-01-06T14:19:08;4.47;;;2.33;;
38609;SDS011;24367;51.640;9.566;2024-01-06T14:21:35;9.77;;;2.75;;
38609;SDS011;24367;51.640;9.566;2024-01-06T14:24:02;8.20;;;2.70;;
38609;SDS011;24367;51.640;9.566;2024-01-06T14:26:28;8.98;;;2.50;;
38609;SDS011;24367;51.640;9.566;2024-01-06T14:28:56;8.77;;;2.55;;
38609;SDS011;24367;51.640;9.566;2024-01-06T14:31:23;7.20;;;2.83;;
38609;SDS011;24367;51.640;9.566;2024-01-06T14:33:49;7.70;;;2.17;;
38609;SDS011;24367;51.640;9.566;2024-01-06T14:36:15;9.05;;;2.55;;
38609;SDS011;24367;51.640;9.566;2024-01-06T14:38:44;7.47;;;2.50;;
38609;SDS011;24367;51.640;9.566;2024-01-06T14:41:10;6.22;;;2.30;;
38609;SDS011;24367;51.640;9.566;2024-01-06T14:43:37;9.38;;;2.70;;
38609;SDS011;24367;51.640;9.566;2024-01-06T14:46:04;6.55;;;2.88;;
38609;SDS011;24367;51.640;9.566;2024-01-06T14:48:30;7.47;;;2.50;;
38609;SDS011;24367;51.640;9.566;2024-01-06T14:50:57;11.88;;;2.50;;
38609;SDS011;24367;51.640;9.566;2024-01-06T14:53:24;12.98;;;2.42;;
38609;SDS011;24367;51.640;9.566;2024-01-06T14:55:51;11.75;;;2.60;;